createdAt,value
2023-01-17T00:02:09.073Z,60.65
2023-01-17T00:04:54.637Z,60.31
2023-01-17T00:07:42.326Z,61.16
2023-01-17T00:10:14.065Z,60.54
2023-01-17T00:12:48.326Z,60.47
2023-01-17T00:15:19.678Z,60.00
2023-01-17T00:17:48.610Z,60.92
2023-01-17T00:20:35.429Z,60.81
2023-01-17T00:23:25.072Z,60.52
2023-01-17T00:26:05.713Z,60.20
2023-01-17T00:28:36.765Z,60.27
2023-01-17T00:31:06.029Z,59.52
2023-01-17T00:33:33.059Z,60.02
2023-01-17T00:36:27.343Z,59.38
2023-01-17T00:38:54.311Z,58.96
2023-01-17T00:41:21.283Z,59.00
2023-01-17T00:44:08.543Z,59.42
2023-01-17T00:46:54.231Z,59.03
2023-01-17T00:49:39.979Z,58.61
2023-01-17T00:52:25.941Z,58.69
2023-01-17T00:55:11.490Z,59.55
2023-01-17T00:57:57.109Z,60.12
2023-01-17T01:00:43.974Z,60.85
2023-01-17T01:03:30.567Z,60.34
2023-01-17T01:06:16.532Z,60.98
2023-01-17T01:09:03.502Z,60.72
2023-01-17T01:11:49.076Z,59.68
2023-01-17T01:14:34.999Z,60.83
2023-01-17T01:17:22.440Z,60.44
2023-01-17T01:20:08.381Z,58.93
2023-01-17T01:22:53.901Z,60.02
2023-01-17T01:25:39.378Z,60.54
2023-01-17T01:28:29.156Z,60.12
2023-01-17T01:31:15.109Z,59.32
2023-01-17T01:33:44.508Z,60.01
2023-01-17T01:36:12.553Z,59.59
2023-01-17T01:38:40.872Z,59.76
2023-01-17T01:41:09.013Z,59.13
2023-01-17T01:43:47.625Z,59.86
2023-01-17T01:46:20.899Z,59.10
2023-01-17T01:48:54.967Z,58.95
2023-01-17T01:51:28.741Z,59.51
2023-01-17T01:54:03.323Z,59.37
2023-01-17T01:56:32.613Z,59.52
2023-01-17T01:59:03.148Z,59.05
2023-01-17T02:01:32.079Z,59.92
2023-01-17T02:04:01.829Z,59.14
2023-01-17T02:06:34.803Z,59.40
2023-01-17T02:09:08.453Z,58.97
2023-01-17T02:11:38.920Z,58.58
2023-01-17T02:14:07.219Z,58.82
2023-01-17T02:16:54.485Z,59.00
2023-01-17T02:19:58.290Z,57.13
2023-01-17T02:23:13.278Z,58.65
2023-01-17T02:26:42.143Z,58.50
2023-01-17T02:30:04.805Z,58.72
2023-01-17T02:33:06.856Z,58.30
2023-01-17T02:35:43.135Z,58.89
2023-01-17T02:38:25.124Z,58.49
2023-01-17T02:40:58.770Z,58.94
2023-01-17T02:43:28.116Z,58.84
2023-01-17T02:45:56.260Z,58.34
2023-01-17T02:48:31.367Z,58.70
2023-01-17T02:51:54.082Z,58.24
2023-01-17T02:54:46.610Z,58.50
2023-01-17T02:57:39.739Z,58.76
2023-01-17T03:00:21.222Z,57.76
2023-01-17T03:03:03.175Z,58.29
2023-01-17T03:05:39.813Z,57.89
2023-01-17T03:08:08.661Z,58.28
2023-01-17T03:10:37.780Z,58.23
2023-01-17T03:13:05.818Z,58.93
2023-01-17T03:15:34.111Z,58.22
2023-01-17T03:18:06.880Z,58.64
2023-01-17T03:20:36.331Z,59.45
2023-01-17T03:23:04.654Z,60.09
2023-01-17T03:25:32.804Z,60.63
2023-01-17T03:28:01.022Z,60.61
2023-01-17T03:30:29.370Z,61.13
2023-01-17T03:32:57.423Z,61.51
2023-01-17T03:35:25.636Z,61.54
2023-01-17T03:37:55.048Z,61.04
2023-01-17T03:40:23.231Z,62.13
2023-01-17T03:42:51.279Z,61.70
2023-01-17T03:45:19.815Z,62.26
2023-01-17T03:47:47.855Z,62.12
2023-01-17T03:50:16.285Z,61.53
2023-01-17T03:52:44.389Z,62.20
2023-01-17T03:55:13.831Z,62.18
2023-01-17T03:57:41.977Z,62.79
2023-01-17T04:00:12.229Z,63.23
2023-01-17T04:02:40.443Z,62.60
2023-01-17T04:05:09.810Z,62.33
2023-01-17T04:07:37.923Z,63.32
2023-01-17T04:10:07.962Z,63.70
2023-01-17T04:12:37.355Z,64.00
2023-01-17T04:15:06.345Z,63.91
2023-01-17T04:17:34.745Z,62.84
2023-01-17T04:20:02.870Z,63.34
2023-01-17T04:22:31.565Z,63.83
2023-01-17T04:24:59.818Z,64.08
2023-01-17T04:27:28.123Z,63.70
2023-01-17T04:29:57.525Z,64.23
2023-01-17T04:32:25.772Z,64.39
2023-01-17T04:34:53.828Z,64.45
2023-01-17T04:37:21.995Z,64.22
2023-01-17T04:39:51.160Z,64.43
2023-01-17T04:42:19.169Z,64.54
2023-01-17T04:44:48.263Z,64.37
2023-01-17T04:47:17.702Z,65.14
2023-01-17T04:49:45.720Z,64.92
2023-01-17T04:52:15.025Z,64.74
2023-01-17T04:54:43.112Z,64.24
2023-01-17T04:57:11.260Z,64.20
2023-01-17T04:59:39.274Z,63.91
2023-01-17T05:02:07.529Z,64.68
2023-01-17T05:04:36.922Z,64.08
2023-01-17T05:07:05.450Z,64.11
2023-01-17T05:09:33.881Z,65.07
2023-01-17T05:12:01.995Z,64.98
2023-01-17T05:14:30.172Z,64.96
2023-01-17T05:16:59.060Z,66.03
2023-01-17T05:19:28.209Z,65.17
2023-01-17T05:22:03.736Z,65.32
2023-01-17T05:24:32.498Z,64.94
2023-01-17T05:27:03.092Z,64.06
2023-01-17T05:29:31.535Z,64.71
2023-01-17T05:31:59.628Z,64.64
2023-01-17T05:34:27.717Z,65.16
2023-01-17T05:36:57.412Z,63.71
2023-01-17T05:39:26.407Z,64.17
2023-01-17T05:41:54.957Z,63.52
2023-01-17T05:44:23.014Z,64.17
2023-01-17T05:46:51.101Z,63.66
2023-01-17T05:49:19.139Z,63.72
2023-01-17T05:51:47.285Z,64.22
2023-01-17T05:54:16.987Z,64.20
2023-01-17T05:56:45.340Z,64.08
2023-01-17T05:59:14.334Z,62.75
2023-01-17T06:01:42.556Z,63.63
2023-01-17T06:04:10.956Z,63.71
2023-01-17T06:06:39.014Z,63.41
2023-01-17T06:09:07.107Z,62.81
2023-01-17T06:11:36.608Z,63.60
2023-01-17T06:14:04.853Z,63.05
2023-01-17T06:16:32.855Z,63.53
2023-01-17T06:21:31.119Z,64.78
2023-01-17T06:23:59.212Z,64.19
2023-01-17T06:26:27.352Z,63.99
2023-01-17T06:28:56.762Z,62.97
2023-01-17T06:31:24.875Z,63.62
2023-01-17T06:33:52.937Z,64.09
2023-01-17T06:36:21.804Z,64.34
2023-01-17T06:38:51.917Z,63.24
2023-01-17T06:41:20.028Z,64.06
2023-01-17T06:43:48.090Z,63.74
2023-01-17T06:46:17.596Z,63.30
2023-01-17T06:48:46.076Z,64.42
2023-01-17T06:51:14.191Z,64.10
2023-01-17T06:53:42.735Z,63.58
2023-01-17T06:56:11.828Z,63.54
2023-01-17T06:58:39.873Z,63.42
2023-01-17T07:01:09.334Z,63.18
2023-01-17T07:03:39.293Z,64.26
2023-01-17T07:06:09.493Z,64.41
2023-01-17T07:08:37.748Z,64.02
2023-01-17T07:11:08.832Z,63.19
2023-01-17T07:13:38.559Z,63.15
2023-01-17T07:16:08.762Z,64.76
2023-01-17T07:18:38.181Z,63.39
2023-01-17T07:21:06.745Z,65.31
2023-01-17T07:23:34.948Z,63.84
2023-01-17T07:26:03.078Z,64.80
2023-01-17T07:28:31.162Z,64.34
2023-01-17T07:30:59.312Z,64.69
2023-01-17T07:33:27.496Z,64.69
2023-01-17T07:35:56.852Z,64.40
2023-01-17T07:38:24.944Z,65.61
2023-01-17T07:40:53.001Z,65.93
2023-01-17T07:43:21.069Z,65.70
2023-01-17T07:45:51.500Z,66.74
2023-01-17T07:48:24.705Z,65.71
2023-01-17T07:50:56.354Z,65.18
2023-01-17T07:53:26.841Z,65.08
2023-01-17T07:55:55.354Z,64.11
2023-01-17T07:58:23.844Z,64.55
2023-01-17T08:00:52.154Z,64.27
2023-01-17T08:03:20.304Z,64.97
2023-01-17T08:05:57.669Z,64.18
2023-01-17T08:08:26.305Z,64.75
2023-01-17T08:10:54.735Z,63.98
2023-01-17T08:13:23.069Z,64.45
2023-01-17T08:15:51.780Z,65.14
2023-01-17T08:18:20.103Z,64.56
2023-01-17T08:20:48.234Z,64.56
2023-01-17T08:23:17.734Z,65.18
2023-01-17T08:25:45.763Z,65.42
2023-01-17T08:28:14.016Z,64.53
2023-01-17T08:30:42.330Z,64.39
2023-01-17T08:33:10.368Z,64.48
2023-01-17T08:35:38.481Z,64.79
2023-01-17T08:38:06.756Z,64.79
2023-01-17T08:40:36.327Z,65.45
2023-01-17T08:43:04.387Z,64.05
2023-01-17T08:45:32.572Z,64.51
2023-01-17T08:48:00.845Z,63.96
2023-01-17T08:50:29.403Z,63.87
2023-01-17T08:53:01.337Z,64.14
2023-01-17T08:55:29.742Z,64.83
2023-01-17T08:57:59.167Z,63.87
2023-01-17T09:00:28.553Z,64.27
2023-01-17T09:02:56.706Z,64.57
2023-01-17T09:05:25.225Z,64.55
2023-01-17T09:07:53.315Z,63.97
2023-01-17T09:10:23.275Z,65.70
2023-01-17T09:12:52.460Z,65.03
2023-01-17T09:15:21.924Z,63.97
2023-01-17T09:17:50.141Z,62.91
2023-01-17T09:20:19.277Z,61.92
2023-01-17T09:22:47.388Z,62.61
2023-01-17T09:25:15.747Z,62.76
2023-01-17T09:27:47.533Z,62.71
2023-01-17T09:30:16.743Z,62.11
2023-01-17T09:32:52.523Z,62.87
2023-01-17T09:35:20.917Z,62.68
2023-01-17T09:37:50.790Z,63.75
2023-01-17T09:40:23.044Z,64.11
2023-01-17T09:42:55.040Z,63.45
2023-01-17T09:45:23.421Z,63.72
2023-01-17T09:47:55.571Z,63.37
2023-01-17T09:50:32.349Z,65.37
2023-01-17T09:53:07.722Z,65.23
2023-01-17T09:55:41.374Z,64.34
2023-01-17T09:58:15.180Z,64.78
2023-01-17T10:00:54.224Z,62.70
2023-01-17T10:03:43.396Z,63.61
2023-01-17T10:06:49.250Z,63.85
2023-01-17T10:09:50.433Z,64.55
2023-01-17T10:12:30.406Z,64.73
2023-01-17T10:15:30.263Z,63.72
2023-01-17T10:18:07.829Z,63.78
2023-01-17T10:20:51.008Z,63.64
2023-01-17T10:23:51.239Z,61.79
2023-01-17T10:26:24.474Z,61.16
2023-01-17T10:28:54.381Z,60.91
2023-01-17T10:31:26.328Z,60.62
2023-01-17T10:33:56.405Z,59.62
2023-01-17T10:36:28.699Z,59.51
2023-01-17T10:39:00.219Z,59.58
2023-01-17T10:41:34.225Z,59.68
2023-01-17T10:44:08.570Z,59.94
2023-01-17T10:46:44.064Z,59.44
2023-01-17T10:49:19.324Z,59.50
2023-01-17T10:52:13.902Z,57.98
2023-01-17T10:54:59.075Z,56.87
2023-01-17T10:57:28.948Z,57.53
2023-01-17T11:00:01.745Z,57.34
2023-01-17T11:02:35.354Z,56.04
2023-01-17T11:05:13.454Z,54.90
2023-01-17T11:07:58.502Z,53.51
2023-01-17T11:10:43.723Z,53.53
2023-01-17T11:13:26.927Z,53.36
2023-01-17T11:16:00.470Z,53.62
2023-01-17T11:18:31.250Z,53.48
2023-01-17T11:21:15.581Z,52.70
2023-01-17T11:23:47.264Z,53.07
2023-01-17T11:26:26.603Z,53.41
2023-01-17T11:29:13.828Z,53.67
2023-01-17T11:31:42.028Z,52.22
2023-01-17T11:34:17.434Z,52.00
2023-01-17T11:36:45.857Z,51.51
2023-01-17T11:39:28.191Z,51.19
2023-01-17T11:41:56.576Z,52.65
2023-01-17T11:44:28.078Z,51.20
2023-01-17T11:47:19.917Z,51.62
2023-01-17T11:49:50.543Z,53.22
2023-01-17T11:52:25.086Z,51.85
2023-01-17T11:54:56.309Z,51.41
2023-01-17T11:57:27.857Z,52.11
2023-01-17T12:00:05.049Z,52.49
2023-01-17T12:03:09.371Z,50.99
2023-01-17T12:05:57.929Z,50.49
2023-01-17T12:08:51.395Z,49.93
2023-01-17T12:11:30.189Z,49.91
2023-01-17T12:14:12.148Z,49.01
2023-01-17T12:17:02.473Z,48.74
2023-01-17T12:20:00.795Z,46.96
2023-01-17T12:22:56.370Z,47.87
2023-01-17T12:25:46.383Z,46.43
2023-01-17T12:28:49.649Z,47.14
2023-01-17T12:31:30.519Z,47.75
2023-01-17T12:34:08.072Z,48.66
2023-01-17T12:36:44.794Z,47.77
2023-01-17T12:39:14.355Z,47.80
2023-01-17T12:41:57.870Z,48.16
2023-01-17T12:44:45.539Z,47.48
2023-01-17T12:47:17.050Z,47.49
2023-01-17T12:49:55.501Z,48.02
2023-01-17T12:52:35.885Z,47.75
2023-01-17T12:55:11.599Z,49.93
2023-01-17T12:57:46.357Z,50.99
2023-01-17T13:00:22.967Z,50.75
2023-01-17T13:02:56.611Z,50.81
2023-01-17T13:05:31.732Z,50.45
2023-01-17T13:08:14.784Z,50.03
2023-01-17T13:10:48.037Z,48.33
2023-01-17T13:13:22.486Z,48.49
2023-01-17T13:15:56.125Z,48.73
2023-01-17T13:18:29.543Z,47.01
2023-01-17T13:21:13.068Z,48.23
2023-01-17T13:24:25.006Z,47.90
2023-01-17T13:27:39.367Z,47.93
2023-01-17T13:30:44.104Z,48.87
2023-01-17T13:33:34.047Z,47.62
2023-01-17T13:36:21.959Z,48.61
2023-01-17T13:39:35.860Z,50.38
2023-01-17T13:42:18.826Z,50.19
2023-01-17T13:44:47.498Z,49.22
2023-01-17T13:47:41.492Z,49.15
2023-01-17T13:50:52.967Z,48.11
2023-01-17T13:53:58.821Z,48.65
2023-01-17T13:56:44.858Z,48.77
2023-01-17T13:59:34.302Z,48.29
2023-01-17T14:02:02.856Z,48.79
2023-01-17T14:05:09.344Z,49.25
2023-01-17T14:07:47.386Z,50.25
2023-01-17T14:10:34.305Z,50.12
2023-01-17T14:13:04.687Z,49.26
2023-01-17T14:15:36.270Z,49.30
2023-01-17T14:18:08.178Z,50.20
2023-01-17T14:20:52.829Z,50.15
2023-01-17T14:23:54.187Z,51.02
2023-01-17T14:26:46.370Z,49.19
2023-01-17T14:29:58.836Z,48.79
2023-01-17T14:32:31.890Z,47.72
2023-01-17T14:35:00.627Z,47.74
2023-01-17T14:37:45.418Z,48.56
2023-01-17T14:40:21.128Z,49.56
2023-01-17T14:42:54.725Z,51.15
2023-01-17T14:45:29.831Z,50.93
2023-01-17T14:48:00.540Z,51.15
2023-01-17T14:50:31.478Z,51.39
2023-01-17T14:53:28.257Z,50.43
2023-01-17T14:56:01.659Z,50.86
2023-01-17T14:58:31.932Z,50.92
2023-01-17T15:01:03.280Z,50.89
2023-01-17T15:03:36.540Z,50.16
2023-01-17T15:06:13.517Z,50.25
2023-01-17T15:08:41.819Z,51.51
2023-01-17T15:11:19.507Z,50.48
2023-01-17T15:13:50.733Z,51.11
2023-01-17T15:16:23.391Z,50.54
2023-01-17T15:18:52.535Z,49.75
2023-01-17T15:21:23.919Z,50.76
2023-01-17T15:23:56.325Z,49.81
2023-01-17T15:26:29.301Z,50.59
2023-01-17T15:29:05.941Z,51.51
2023-01-17T15:31:44.060Z,51.82
2023-01-17T15:34:26.400Z,51.80
2023-01-17T15:36:57.977Z,51.95
2023-01-17T15:39:30.246Z,50.90
2023-01-17T15:42:04.308Z,51.80
2023-01-17T15:44:47.468Z,50.67
2023-01-17T15:47:31.824Z,51.04
2023-01-17T15:50:03.017Z,51.03
2023-01-17T15:52:31.416Z,51.11
2023-01-17T15:55:12.461Z,51.70
2023-01-17T15:57:47.453Z,51.13
2023-01-17T16:00:23.896Z,51.45
2023-01-17T16:02:55.421Z,51.69
2023-01-17T16:05:41.936Z,51.75
2023-01-17T16:08:27.983Z,51.22
2023-01-17T16:11:01.848Z,52.99
2023-01-17T16:13:33.294Z,52.81
2023-01-17T16:16:26.677Z,52.56
2023-01-17T16:19:01.306Z,52.37
2023-01-17T16:21:31.654Z,52.34
2023-01-17T16:24:02.746Z,52.41
2023-01-17T16:26:30.978Z,52.05
2023-01-17T16:29:00.499Z,52.41
2023-01-17T16:31:28.669Z,52.80
2023-01-17T16:33:56.771Z,52.95
2023-01-17T16:36:24.908Z,52.43
2023-01-17T16:38:53.677Z,52.09
2023-01-17T16:41:22.142Z,50.99
2023-01-17T16:44:05.244Z,51.66
2023-01-17T16:46:38.079Z,51.84
2023-01-17T16:49:06.621Z,51.89
2023-01-17T16:51:34.888Z,51.64
2023-01-17T16:54:03.368Z,51.82
2023-01-17T16:56:31.678Z,51.23
2023-01-17T16:59:01.040Z,51.38
2023-01-17T17:01:29.203Z,51.87
2023-01-17T17:03:57.685Z,52.06
2023-01-17T17:06:25.706Z,51.26
2023-01-17T17:08:53.714Z,52.09
2023-01-17T17:11:24.511Z,51.28
2023-01-17T17:13:53.324Z,51.15
2023-01-17T17:16:26.664Z,50.80
2023-01-17T17:19:00.443Z,51.16
2023-01-17T17:21:30.205Z,53.19
2023-01-17T17:24:01.587Z,51.48
2023-01-17T17:26:34.295Z,51.21
2023-01-17T17:29:04.238Z,51.17
2023-01-17T17:31:34.319Z,50.46
2023-01-17T17:34:04.645Z,52.02
2023-01-17T17:36:32.794Z,52.22
2023-01-17T17:39:03.387Z,52.00
2023-01-17T17:41:34.076Z,53.38
2023-01-17T17:44:03.787Z,54.40
2023-01-17T17:46:34.005Z,55.50
2023-01-17T17:49:02.614Z,55.59
2023-01-17T17:51:33.163Z,56.10
2023-01-17T17:54:03.743Z,56.51
2023-01-17T17:56:33.964Z,57.22
2023-01-17T17:59:04.558Z,57.17
2023-01-17T18:01:38.235Z,56.90
2023-01-17T18:04:07.851Z,57.54
2023-01-17T18:06:38.598Z,57.88
2023-01-17T18:09:08.240Z,58.29
2023-01-17T18:11:38.119Z,59.22
2023-01-17T18:14:09.389Z,59.81
2023-01-17T18:16:41.723Z,59.38
2023-01-17T18:19:14.840Z,60.30
2023-01-17T18:21:43.556Z,59.60
2023-01-17T18:24:14.740Z,61.24
2023-01-17T18:26:44.718Z,61.10
2023-01-17T18:29:16.240Z,60.95
2023-01-17T18:31:46.856Z,60.61
2023-01-17T18:34:17.462Z,61.59
2023-01-17T18:36:45.670Z,61.95
2023-01-17T18:39:16.138Z,62.39
2023-01-17T18:41:44.683Z,62.94
2023-01-17T18:44:13.327Z,62.38
2023-01-17T18:46:42.199Z,62.28
2023-01-17T18:49:16.276Z,63.15
2023-01-17T18:51:46.747Z,62.62
2023-01-17T18:54:15.155Z,62.98
2023-01-17T18:56:43.657Z,63.49
2023-01-17T18:59:13.672Z,62.23
2023-01-17T19:01:44.730Z,62.57
2023-01-17T19:04:15.808Z,63.21
2023-01-17T19:06:46.059Z,62.80
2023-01-17T19:09:16.065Z,62.94
2023-01-17T19:11:45.451Z,62.71
2023-01-17T19:14:14.401Z,62.87
2023-01-17T19:16:43.242Z,64.27
2023-01-17T19:19:15.945Z,64.05
2023-01-17T19:21:44.159Z,63.70
2023-01-17T19:24:14.210Z,63.77
2023-01-17T19:26:42.821Z,64.40
2023-01-17T19:29:11.003Z,64.91
2023-01-17T19:31:42.624Z,65.21
2023-01-17T19:34:13.643Z,64.81
2023-01-17T19:36:43.688Z,65.99
2023-01-17T19:39:12.383Z,65.95
2023-01-17T19:41:45.660Z,65.46
2023-01-17T19:44:15.450Z,65.72
2023-01-17T19:46:44.225Z,65.70
2023-01-17T19:49:12.663Z,65.95
2023-01-17T19:51:42.111Z,66.24
2023-01-17T19:54:10.553Z,65.91
2023-01-17T19:56:38.598Z,65.81
2023-01-17T19:59:07.129Z,66.68
2023-01-17T20:01:36.156Z,66.05
2023-01-17T20:04:05.318Z,65.72
2023-01-17T20:06:36.842Z,66.40
2023-01-17T20:09:07.425Z,66.54
2023-01-17T20:11:35.640Z,66.15
2023-01-17T20:14:05.467Z,65.32
2023-01-17T20:16:36.128Z,66.85
2023-01-17T20:19:04.268Z,66.82
2023-01-17T20:21:34.250Z,66.89
2023-01-17T20:24:04.131Z,67.33
2023-01-17T20:26:35.908Z,66.45
2023-01-17T20:29:10.150Z,67.47
2023-01-17T20:31:39.636Z,67.36
2023-01-17T20:34:09.964Z,67.82
2023-01-17T20:36:38.825Z,67.59
2023-01-17T20:39:09.169Z,67.24
2023-01-17T20:41:41.126Z,67.45
2023-01-17T20:44:13.752Z,67.45
2023-01-17T20:46:42.372Z,68.26
2023-01-17T20:49:14.579Z,67.73
2023-01-17T20:51:44.190Z,68.21
2023-01-17T20:54:14.849Z,67.88
2023-01-17T20:56:46.732Z,67.89
2023-01-17T20:59:17.621Z,67.29
2023-01-17T21:01:46.994Z,67.75
2023-01-17T21:04:15.567Z,67.40
2023-01-17T21:06:45.790Z,68.06
2023-01-17T21:09:17.010Z,67.76
2023-01-17T21:11:46.416Z,67.26
2023-01-17T21:14:14.528Z,66.90
2023-01-17T21:16:42.816Z,67.38
2023-01-17T21:19:14.274Z,66.77
2023-01-17T21:21:42.368Z,68.34
2023-01-17T21:24:16.125Z,67.81
2023-01-17T21:26:45.440Z,68.45
2023-01-17T21:29:16.309Z,68.26
2023-01-17T21:31:45.150Z,68.70
2023-01-17T21:34:14.516Z,69.20
2023-01-17T21:36:43.628Z,68.49
2023-01-17T21:39:15.603Z,68.13
2023-01-17T21:41:46.355Z,68.12
2023-01-17T21:44:19.612Z,68.60
2023-01-17T21:46:48.702Z,68.72
2023-01-17T21:49:17.137Z,68.44
2023-01-17T21:52:03.195Z,68.36
2023-01-17T21:54:49.352Z,68.35
2023-01-17T21:57:39.221Z,68.50
2023-01-17T22:00:14.327Z,69.23
2023-01-17T22:02:44.108Z,68.93
2023-01-17T22:05:12.681Z,69.42
2023-01-17T22:08:01.452Z,68.73
2023-01-17T22:10:29.621Z,68.39
2023-01-17T22:12:58.568Z,68.58
2023-01-17T22:15:29.141Z,68.94
2023-01-17T22:17:57.633Z,68.75
2023-01-17T22:20:26.779Z,69.42
2023-01-17T22:22:55.051Z,68.51
2023-01-17T22:25:24.137Z,69.14
2023-01-17T22:27:52.333Z,69.33
2023-01-17T22:30:20.606Z,68.95
2023-01-17T22:32:50.058Z,68.32
2023-01-17T22:35:18.280Z,68.71
2023-01-17T22:37:47.263Z,68.47
2023-01-17T22:40:17.360Z,68.15
2023-01-17T22:42:45.439Z,67.87
2023-01-17T22:45:14.241Z,67.83
2023-01-17T22:47:43.379Z,67.84
2023-01-17T22:50:13.537Z,67.93
2023-01-17T22:52:41.946Z,67.21
2023-01-17T22:55:12.090Z,68.11
2023-01-17T22:57:40.164Z,67.50
2023-01-17T23:00:14.447Z,67.33
2023-01-17T23:02:43.560Z,67.89
2023-01-17T23:05:13.051Z,67.24
2023-01-17T23:07:44.245Z,67.09
2023-01-17T23:10:35.318Z,66.92
2023-01-17T23:13:03.376Z,67.57
2023-01-17T23:15:48.881Z,66.67
2023-01-17T23:18:34.626Z,67.05
2023-01-17T23:21:03.992Z,66.73
2023-01-17T23:23:33.215Z,67.50
2023-01-17T23:26:02.128Z,67.05
2023-01-17T23:28:29.228Z,67.29
2023-01-17T23:31:04.832Z,67.28
2023-01-17T23:33:33.009Z,66.97
2023-01-17T23:36:01.455Z,66.83
2023-01-17T23:38:30.986Z,67.17
2023-01-17T23:41:20.191Z,67.33
2023-01-17T23:43:52.564Z,66.83
2023-01-17T23:46:20.724Z,66.44
2023-01-17T23:48:49.328Z,66.98
2023-01-17T23:51:17.434Z,67.31
2023-01-17T23:53:46.828Z,66.42
2023-01-17T23:56:18.039Z,67.02
2023-01-17T23:58:46.166Z,67.20
